Time;durP1;ratioP1;P1;durP2;ratioP2;P2;SDS_P1;SDS_P2;PMS_P1;PMS_P2;Temp;Humidity;BMP_temperature;BMP_pressure;BME280_temperature;BME280_humidity;BME280_pressure;Samples;Min_cycle;Max_cycle;Signal;HPM_P1;HPM_P2
2023/01/13 00:01:08;;;;;;;9.63;2.03;;;9.70;99.90;;;;;;5036508;28;20204;-60
2023/01/13 00:03:36;;;;;;;9.67;1.83;;;9.70;99.90;;;;;;5037668;28;20221;-60
2023/01/13 00:06:04;;;;;;;8.43;1.93;;;9.70;99.90;;;;;;5036501;28;20644;-60
2023/01/13 00:08:31;;;;;;;15.03;2.20;;;9.60;99.90;;;;;;5034763;28;20942;-59
2023/01/13 00:10:58;;;;;;;10.83;2.50;;;9.60;99.90;;;;;;5034729;28;20741;-60
2023/01/13 00:13:27;;;;;;;14.87;2.17;;;9.50;99.90;;;;;;5036781;28;20219;-59
2023/01/13 00:15:59;;;;;;;11.17;1.93;;;9.50;99.90;;;;;;5037851;28;20685;-61
2023/01/13 00:18:27;;;;;;;12.40;2.47;;;9.50;99.90;;;;;;5036283;28;20720;-60
2023/01/13 00:21:20;;;;;;;18.07;3.40;;;9.50;99.90;;;;;;5030217;28;21036;-60
2023/01/13 00:23:48;;;;;;;17.30;2.30;;;9.50;99.90;;;;;;5028256;28;20410;-60
2023/01/13 00:26:18;;;;;;;16.97;2.70;;;9.40;99.90;;;;;;5030977;28;20206;-59
2023/01/13 00:28:45;;;;;;;13.00;2.73;;;9.40;99.90;;;;;;5034630;28;20293;-61
2023/01/13 00:31:15;;;;;;;10.20;3.07;;;9.40;99.90;;;;;;5031856;28;20200;-60
2023/01/13 00:33:42;;;;;;;12.60;2.30;;;9.30;99.90;;;;;;5031108;28;20216;-59
2023/01/13 00:36:11;;;;;;;10.43;2.60;;;9.30;99.90;;;;;;5038373;28;20205;-59
2023/01/13 00:38:41;;;;;;;8.30;1.90;;;9.30;99.90;;;;;;5034023;28;20212;-59
2023/01/13 00:41:11;;;;;;;11.37;2.77;;;9.30;99.90;;;;;;5035815;28;20254;-60
2023/01/13 00:43:37;;;;;;;12.93;2.67;;;9.30;99.90;;;;;;5034121;28;20216;-60
2023/01/13 00:46:06;;;;;;;10.70;2.20;;;9.20;99.90;;;;;;5034542;28;20208;-59
2023/01/13 00:48:34;;;;;;;12.93;2.53;;;9.20;99.90;;;;;;5033906;28;20250;-59
2023/01/13 00:51:03;;;;;;;17.30;2.57;;;9.20;99.90;;;;;;5033263;28;20282;-60
2023/01/13 00:53:34;;;;;;;9.67;1.80;;;9.20;99.90;;;;;;5042060;28;20216;-60
2023/01/13 00:56:03;;;;;;;9.83;2.00;;;9.20;99.90;;;;;;5023383;28;20213;-60
2023/01/13 00:58:31;;;;;;;12.27;2.50;;;9.20;99.90;;;;;;5041051;28;20515;-59
2023/01/13 01:01:06;;;;;;;14.40;3.20;;;9.20;99.90;;;;;;5039161;28;20203;-59
2023/01/13 01:03:34;;;;;;;12.07;2.70;;;9.20;99.90;;;;;;5039989;28;20204;-60
2023/01/13 01:06:07;;;;;;;23.40;3.37;;;9.20;99.90;;;;;;5039236;28;20294;-65
2023/01/13 01:08:35;;;;;;;19.53;3.40;;;9.20;99.90;;;;;;5040729;28;20755;-60
2023/01/13 01:11:14;;;;;;;17.90;4.27;;;9.30;99.90;;;;;;5041702;28;20246;-60
2023/01/13 01:13:41;;;;;;;11.43;2.50;;;9.30;99.90;;;;;;5040809;28;20901;-60
2023/01/13 01:16:11;;;;;;;18.53;2.90;;;9.20;99.90;;;;;;5038494;28;20195;-59
2023/01/13 01:18:40;;;;;;;19.27;2.20;;;9.20;99.90;;;;;;5039389;28;20252;-59
2023/01/13 01:21:09;;;;;;;15.00;2.77;;;9.20;99.90;;;;;;5031135;28;20201;-59
2023/01/13 01:23:37;;;;;;;12.63;2.83;;;9.20;99.90;;;;;;5035913;28;20218;-59
2023/01/13 01:26:06;;;;;;;16.67;2.63;;;9.10;99.90;;;;;;5041096;28;20199;-60
2023/01/13 01:28:34;;;;;;;14.87;2.60;;;9.10;99.90;;;;;;5039196;28;20210;-61
2023/01/13 01:31:09;;;;;;;21.10;2.93;;;9.10;99.90;;;;;;5037396;28;20206;-59
2023/01/13 01:33:36;;;;;;;17.67;2.70;;;9.10;99.90;;;;;;5038760;28;20223;-60
2023/01/13 01:36:03;;;;;;;14.90;3.00;;;9.10;99.90;;;;;;5040105;28;20210;-59
2023/01/13 01:38:30;;;;;;;14.33;3.40;;;9.10;99.90;;;;;;5040009;28;20211;-60
2023/01/13 01:40:57;;;;;;;12.07;1.93;;;9.00;99.90;;;;;;5039991;28;20216;-60
2023/01/13 01:43:59;;;;;;;14.50;2.10;;;9.10;99.90;;;;;;5041997;28;20204;-59
2023/01/13 01:46:26;;;;;;;15.97;2.63;;;9.10;99.90;;;;;;5041493;28;20246;-61
2023/01/13 01:48:57;;;;;;;18.67;2.50;;;9.10;99.90;;;;;;5039417;28;20283;-61
2023/01/13 01:51:24;;;;;;;16.97;2.57;;;9.10;99.90;;;;;;5038765;28;20232;-61
2023/01/13 01:53:52;;;;;;;13.70;3.50;;;9.00;99.90;;;;;;5034026;28;20681;-59
2023/01/13 01:56:20;;;;;;;12.70;3.27;;;9.00;99.90;;;;;;5038730;28;20289;-59
2023/01/13 01:58:50;;;;;;;9.30;2.20;;;9.00;99.90;;;;;;5035915;28;20210;-60
2023/01/13 02:01:17;;;;;;;14.80;2.47;;;8.90;99.90;;;;;;5042016;28;20663;-60
2023/01/13 02:03:59;;;;;;;13.20;2.33;;;8.90;99.90;;;;;;5038321;28;20201;-59
2023/01/13 02:06:28;;;;;;;25.37;3.37;;;8.90;99.90;;;;;;5041385;28;20545;-60
2023/01/13 02:08:57;;;;;;;14.27;2.43;;;8.90;99.90;;;;;;5038478;28;20213;-59
2023/01/13 02:14:16;;;;;;;12.97;2.23;;;8.90;99.90;;;;;;5039772;28;20690;-61
2023/01/13 02:17:02;;;;;;;13.80;2.83;;;8.90;99.90;;;;;;5038744;28;20201;-61
2023/01/13 02:19:41;;;;;;;13.27;3.00;;;8.90;99.90;;;;;;5035100;28;20699;-61
2023/01/13 02:22:50;;;;;;;17.23;3.00;;;8.90;99.90;;;;;;5034752;28;20240;-65
2023/01/13 02:25:40;;;;;;;11.67;3.30;;;8.90;99.90;;;;;;5038254;28;20197;-61
2023/01/13 02:31:42;;;;;;;16.63;2.70;;;8.90;99.90;;;;;;5036514;28;20227;-62
2023/01/13 02:34:13;;;;;;;16.83;2.60;;;8.80;99.90;;;;;;5036797;28;20222;-62
2023/01/13 02:36:57;;;;;;;15.90;3.10;;;8.80;99.90;;;;;;5035829;28;20659;-65
2023/01/13 02:39:40;;;;;;;10.63;2.47;;;8.80;99.90;;;;;;5038518;28;20225;-62
2023/01/13 02:45:11;;;;;;;14.77;3.07;;;8.80;99.90;;;;;;5037893;28;20207;-62
2023/01/13 02:47:42;;;;;;;12.20;2.67;;;8.80;99.90;;;;;;5037730;28;20209;-61
2023/01/13 02:50:12;;;;;;;12.60;2.30;;;8.80;99.90;;;;;;5037614;28;20658;-63
2023/01/13 02:52:47;;;;;;;9.47;2.73;;;8.80;99.90;;;;;;5034699;28;20217;-60
2023/01/13 02:55:25;;;;;;;13.70;2.33;;;8.80;99.90;;;;;;5031379;28;20195;-61
2023/01/13 02:57:53;;;;;;;16.60;3.10;;;8.80;99.90;;;;;;5024360;28;20202;-61
2023/01/13 03:00:21;;;;;;;12.37;2.23;;;8.80;99.90;;;;;;5025623;28;20294;-62
2023/01/13 03:02:48;;;;;;;14.37;2.50;;;8.80;99.90;;;;;;5031197;28;20652;-61
2023/01/13 03:05:16;;;;;;;13.63;2.80;;;8.80;99.90;;;;;;5027483;28;20230;-61
2023/01/13 03:07:55;;;;;;;9.90;2.33;;;8.80;99.90;;;;;;5026004;28;20224;-61
2023/01/13 03:10:36;;;;;;;19.57;2.70;;;8.80;99.90;;;;;;5037230;28;20211;-62
2023/01/13 03:13:32;;;;;;;16.73;2.90;;;8.80;99.90;;;;;;5029027;28;20228;-62
2023/01/13 03:16:14;;;;;;;13.43;2.63;;;8.80;99.90;;;;;;5029720;28;20208;-61
2023/01/13 03:18:53;;;;;;;13.43;3.33;;;8.80;99.90;;;;;;5028031;28;20246;-61
2023/01/13 03:21:33;;;;;;;13.90;2.50;;;8.80;99.90;;;;;;5030630;28;20204;-60
2023/01/13 03:24:05;;;;;;;15.53;2.33;;;8.80;99.90;;;;;;5029588;28;20211;-60
2023/01/13 03:26:31;;;;;;;9.47;2.07;;;8.80;99.90;;;;;;5029802;28;20745;-60
2023/01/13 03:29:07;;;;;;;14.00;2.47;;;8.80;99.90;;;;;;5028318;28;20203;-60
2023/01/13 03:31:39;;;;;;;11.23;2.37;;;8.80;99.90;;;;;;5029018;28;20207;-60
2023/01/13 03:34:12;;;;;;;12.67;3.37;;;8.90;99.90;;;;;;5028738;28;20313;-63
2023/01/13 03:36:40;;;;;;;8.83;2.13;;;8.90;99.90;;;;;;5027936;28;20561;-60
2023/01/13 03:39:13;;;;;;;14.33;2.20;;;8.90;99.90;;;;;;5028483;28;20236;-61
2023/01/13 03:42:04;;;;;;;11.37;2.10;;;8.90;99.90;;;;;;5029356;28;20204;-61
2023/01/13 03:44:46;;;;;;;10.03;2.00;;;8.90;99.90;;;;;;5014455;28;20232;-61
2023/01/13 03:47:32;;;;;;;8.90;1.50;;;8.90;99.90;;;;;;5031354;28;20294;-60
2023/01/13 03:50:08;;;;;;;7.70;2.10;;;8.90;99.90;;;;;;5026211;28;20298;-60
2023/01/13 03:52:52;;;;;;;7.00;1.60;;;9.00;99.90;;;;;;5024891;28;20203;-60
2023/01/13 03:55:26;;;;;;;4.50;0.77;;;9.00;99.90;;;;;;5031289;28;20277;-60
2023/01/13 03:58:38;;;;;;;6.40;1.10;;;9.10;99.90;;;;;;5026389;28;20197;-61
2023/01/13 04:01:11;;;;;;;7.53;1.20;;;9.10;99.90;;;;;;5025432;28;20234;-60
2023/01/13 04:03:53;;;;;;;2.20;0.80;;;9.10;99.90;;;;;;5024447;28;20267;-60
2023/01/13 04:06:46;;;;;;;4.70;0.90;;;9.00;99.90;;;;;;5014544;28;20231;-60
2023/01/13 04:09:36;;;;;;;3.90;0.90;;;9.00;99.90;;;;;;5028293;28;20214;-60
2023/01/13 04:12:16;;;;;;;6.47;0.83;;;9.00;99.90;;;;;;5026813;28;20409;-61
2023/01/13 04:14:43;;;;;;;3.80;1.13;;;9.00;99.90;;;;;;5033213;28;20217;-61
2023/01/13 04:17:10;;;;;;;3.70;0.60;;;9.00;99.90;;;;;;5023413;28;20300;-60
2023/01/13 04:19:37;;;;;;;7.90;1.13;;;8.90;99.90;;;;;;5027750;28;20329;-60
2023/01/13 04:22:04;;;;;;;7.50;1.17;;;8.90;99.90;;;;;;5028815;28;20713;-60
2023/01/13 04:24:31;;;;;;;9.60;1.33;;;8.90;99.90;;;;;;5026289;28;20211;-61
2023/01/13 04:26:57;;;;;;;8.30;1.53;;;8.80;99.90;;;;;;5034472;28;20291;-60
2023/01/13 04:29:24;;;;;;;4.27;1.00;;;8.80;99.90;;;;;;5029743;28;20209;-60
2023/01/13 04:31:51;;;;;;;4.53;0.93;;;8.80;99.90;;;;;;5032126;28;20207;-60
2023/01/13 04:34:18;;;;;;;5.47;0.67;;;8.80;99.90;;;;;;5029670;28;20294;-60
2023/01/13 04:36:45;;;;;;;4.70;0.97;;;8.80;99.90;;;;;;5031289;28;20270;-60
2023/01/13 04:39:11;;;;;;;4.07;0.80;;;8.80;99.90;;;;;;5028361;28;20217;-61
2023/01/13 04:41:56;;;;;;;6.03;1.07;;;8.80;99.90;;;;;;5034347;28;20199;-64
2023/01/13 04:44:23;;;;;;;4.60;1.10;;;8.70;99.90;;;;;;5034308;28;20193;-60
2023/01/13 04:46:50;;;;;;;3.87;1.27;;;8.70;99.90;;;;;;5031839;28;20225;-61
2023/01/13 04:49:17;;;;;;;2.63;1.13;;;8.60;99.90;;;;;;5028622;28;20236;-60
2023/01/13 04:51:43;;;;;;;4.33;1.07;;;8.50;99.90;;;;;;5026234;28;20300;-61
2023/01/13 04:54:10;;;;;;;4.07;0.90;;;8.50;99.90;;;;;;5028428;28;20690;-60
2023/01/13 04:56:37;;;;;;;4.70;1.30;;;8.40;99.90;;;;;;5028261;28;20748;-61
2023/01/13 04:59:04;;;;;;;5.17;1.37;;;8.40;99.90;;;;;;5031160;28;20301;-65
2023/01/13 05:01:31;;;;;;;9.87;1.20;;;8.30;99.90;;;;;;5030246;28;20195;-60
2023/01/13 05:03:58;;;;;;;5.67;1.10;;;8.30;99.90;;;;;;5033340;28;20578;-61
2023/01/13 05:06:24;;;;;;;9.93;1.27;;;8.20;99.90;;;;;;5034898;28;20230;-61
2023/01/13 05:08:51;;;;;;;5.30;1.07;;;8.20;99.90;;;;;;5038322;28;20217;-61
2023/01/13 05:17:01;;;;;;;7.23;1.10;;;8.20;99.90;;;;;;5040988;28;20193;-61
2023/01/13 05:19:34;;;;;;;9.23;1.93;;;8.20;99.90;;;;;;5035964;28;20195;-61
2023/01/13 05:27:33;;;;;;;4.33;1.73;;;8.20;99.90;;;;;;5031488;28;20203;-61
2023/01/13 05:30:00;;;;;;;6.90;1.83;;;8.20;99.90;;;;;;5029349;28;20667;-61
2023/01/13 05:32:27;;;;;;;12.27;1.57;;;8.20;99.90;;;;;;5030777;28;20787;-62
2023/01/13 05:34:54;;;;;;;4.93;1.40;;;8.30;99.90;;;;;;5037874;28;20323;-63
2023/01/13 05:37:22;;;;;;;9.60;1.87;;;8.30;99.90;;;;;;5036769;28;20205;-61
2023/01/13 05:45:20;;;;;;;5.50;1.33;;;8.40;99.90;;;;;;5038703;28;20202;-61
2023/01/13 05:47:47;;;;;;;10.30;1.40;;;8.40;99.90;;;;;;5037545;28;20259;-61
2023/01/13 05:50:15;;;;;;;8.63;2.27;;;8.40;99.90;;;;;;5040459;28;20214;-61
2023/01/13 05:52:42;;;;;;;11.10;2.07;;;8.40;99.90;;;;;;5038046;28;20209;-61
2023/01/13 05:55:10;;;;;;;6.90;1.67;;;8.40;99.90;;;;;;5037045;28;20222;-61
2023/01/13 05:57:37;;;;;;;5.93;1.63;;;8.40;99.90;;;;;;5033158;28;20217;-61
2023/01/13 06:00:04;;;;;;;6.73;1.83;;;8.40;99.90;;;;;;5036260;28;20228;-60
2023/01/13 06:02:31;;;;;;;11.47;2.47;;;8.40;99.90;;;;;;5037841;28;20235;-61
2023/01/13 06:04:58;;;;;;;6.30;1.87;;;8.40;99.90;;;;;;5038939;28;20658;-60
2023/01/13 06:07:24;;;;;;;7.43;1.57;;;8.40;99.90;;;;;;5039594;28;20208;-61
2023/01/13 06:09:51;;;;;;;8.63;1.83;;;8.40;99.90;;;;;;5037136;28;20208;-61
2023/01/13 06:12:18;;;;;;;12.37;1.73;;;8.30;99.90;;;;;;5038548;28;20233;-60
2023/01/13 06:14:45;;;;;;;13.80;1.60;;;8.30;99.90;;;;;;5037999;28;20860;-61
2023/01/13 06:17:13;;;;;;;6.77;1.63;;;8.30;99.90;;;;;;5040350;28;20222;-61
2023/01/13 06:19:40;;;;;;;9.87;2.00;;;8.30;99.90;;;;;;5037406;28;20214;-60
2023/01/13 06:22:10;;;;;;;8.43;2.73;;;8.20;99.90;;;;;;5041801;28;20226;-61
2023/01/13 06:24:37;;;;;;;9.93;1.83;;;8.20;99.90;;;;;;5040583;28;20580;-61
2023/01/13 06:27:05;;;;;;;11.00;2.17;;;8.20;99.90;;;;;;5038522;28;20211;-61
2023/01/13 06:29:32;;;;;;;8.37;2.53;;;8.20;99.90;;;;;;5037956;28;20651;-60
2023/01/13 06:32:04;;;;;;;11.50;2.03;;;8.20;99.90;;;;;;5039938;28;20250;-61
2023/01/13 06:34:33;;;;;;;9.40;1.97;;;8.30;99.90;;;;;;5037193;28;20225;-62
2023/01/13 06:37:02;;;;;;;15.33;2.07;;;8.20;99.90;;;;;;5032596;28;20718;-61
2023/01/13 06:39:30;;;;;;;8.83;1.77;;;8.20;99.90;;;;;;5027826;28;20265;-61
2023/01/13 06:44:44;;;;;;;9.17;2.27;;;8.10;99.90;;;;;;5037228;28;20227;-61
2023/01/13 06:47:10;;;;;;;5.60;1.63;;;8.20;99.90;;;;;;5030345;28;20206;-61
2023/01/13 06:49:37;;;;;;;12.50;2.03;;;8.10;99.90;;;;;;5023946;28;20217;-61
2023/01/13 06:52:04;;;;;;;11.27;1.53;;;8.10;99.90;;;;;;5022735;28;20210;-61
2023/01/13 06:54:31;;;;;;;11.77;1.90;;;8.10;99.90;;;;;;4664517;28;10000543;-61
2023/01/13 06:56:58;;;;;;;12.70;2.20;;;8.10;99.90;;;;;;5007938;28;21801;-60
2023/01/13 06:59:25;;;;;;;11.43;2.10;;;8.10;99.90;;;;;;5015617;28;22892;-61
2023/01/13 07:01:51;;;;;;;8.30;1.57;;;8.20;99.90;;;;;;5014844;28;20215;-61
2023/01/13 07:04:18;;;;;;;7.07;1.53;;;8.20;99.90;;;;;;5018955;28;20745;-68
2023/01/13 07:06:45;;;;;;;5.37;1.43;;;8.20;99.90;;;;;;5025847;28;20208;-61
2023/01/13 07:09:12;;;;;;;8.73;2.30;;;8.20;99.90;;;;;;5022636;28;20237;-61
2023/01/13 07:11:39;;;;;;;5.83;1.50;;;8.20;99.90;;;;;;5015130;28;20644;-61
2023/01/13 07:16:53;;;;;;;8.70;2.03;;;8.20;99.90;;;;;;5021110;28;20223;-62
2023/01/13 07:19:22;;;;;;;15.10;2.30;;;8.20;99.90;;;;;;5022066;28;20235;-61
2023/01/13 07:21:52;;;;;;;11.60;2.90;;;8.20;99.90;;;;;;5017927;28;20204;-61
2023/01/13 07:24:19;;;;;;;11.30;1.93;;;8.20;99.90;;;;;;5024541;28;20255;-60
2023/01/13 07:26:46;;;;;;;9.57;1.87;;;8.20;99.90;;;;;;5018406;28;20979;-60
2023/01/13 07:29:13;;;;;;;13.60;2.43;;;8.20;99.90;;;;;;5028005;28;20211;-62
2023/01/13 07:31:40;;;;;;;11.13;2.37;;;8.20;99.90;;;;;;5031717;28;20213;-61
2023/01/13 07:34:07;;;;;;;10.87;2.60;;;8.20;99.90;;;;;;5034014;28;20216;-60
2023/01/13 07:36:34;;;;;;;12.57;1.90;;;8.20;99.90;;;;;;5028708;28;20573;-60
2023/01/13 07:39:01;;;;;;;12.33;1.90;;;8.20;99.90;;;;;;5029691;28;20192;-61
2023/01/13 07:44:14;;;;;;;14.60;1.63;;;8.20;99.90;;;;;;5030959;28;20200;-60
2023/01/13 07:46:41;;;;;;;11.23;2.43;;;8.20;99.90;;;;;;5030908;28;20888;-61
2023/01/13 07:49:08;;;;;;;8.83;2.10;;;8.20;99.90;;;;;;5018657;28;20724;-62
2023/01/13 07:51:37;;;;;;;13.50;1.90;;;8.20;99.90;;;;;;5028507;28;20305;-61
2023/01/13 07:54:04;;;;;;;12.07;3.37;;;8.20;99.90;;;;;;5028462;28;20243;-65
2023/01/13 07:56:31;;;;;;;11.30;2.20;;;8.20;99.90;;;;;;5026579;28;20579;-61
2023/01/13 07:58:59;;;;;;;15.37;3.27;;;8.20;99.90;;;;;;5026561;28;20640;-62
2023/01/13 08:01:27;;;;;;;11.70;1.60;;;8.20;99.90;;;;;;5031664;28;20212;-61
2023/01/13 08:03:55;;;;;;;7.83;2.00;;;8.20;99.90;;;;;;5028577;28;20200;-61
2023/01/13 08:06:22;;;;;;;9.10;2.00;;;8.30;99.90;;;;;;5022194;28;20218;-61
2023/01/13 08:08:49;;;;;;;12.13;1.73;;;8.30;99.90;;;;;;5031994;28;20294;-60
2023/01/13 08:11:17;;;;;;;11.33;1.93;;;8.30;99.90;;;;;;5022965;28;20289;-61
2023/01/13 08:13:44;;;;;;;7.53;1.40;;;8.40;99.90;;;;;;5032563;28;20378;-61
2023/01/13 08:16:13;;;;;;;13.63;2.10;;;8.40;99.90;;;;;;5030351;28;20263;-61
2023/01/13 08:18:40;;;;;;;14.50;1.80;;;8.40;99.90;;;;;;5032324;28;20204;-61
2023/01/13 08:21:10;;;;;;;12.70;3.03;;;8.50;99.90;;;;;;5032551;28;20235;-61
2023/01/13 08:23:37;;;;;;;12.10;2.13;;;8.50;99.90;;;;;;5030039;28;20204;-62
2023/01/13 08:26:07;;;;;;;15.67;1.73;;;8.50;99.90;;;;;;5027878;28;20416;-61
2023/01/13 08:28:34;;;;;;;8.30;1.93;;;8.50;99.90;;;;;;5032873;28;20317;-61
2023/01/13 08:31:06;;;;;;;15.53;3.57;;;8.60;99.90;;;;;;5033188;28;20223;-61
2023/01/13 08:33:33;;;;;;;12.57;2.33;;;8.70;99.90;;;;;;5030721;28;20228;-61
2023/01/13 08:36:05;;;;;;;7.07;1.20;;;8.70;99.90;;;;;;5034129;28;20321;-62
2023/01/13 08:38:33;;;;;;;15.93;2.43;;;8.70;99.90;;;;;;5033221;28;20193;-61
2023/01/13 08:41:01;;;;;;;8.87;1.83;;;8.70;99.90;;;;;;5034105;28;20571;-61
2023/01/13 08:43:27;;;;;;;11.50;2.50;;;8.70;99.90;;;;;;5033886;28;20297;-61
2023/01/13 08:45:56;;;;;;;11.17;2.07;;;8.60;99.90;;;;;;5031871;28;20292;-61
2023/01/13 08:48:23;;;;;;;13.10;2.17;;;8.70;99.90;;;;;;5030740;28;20727;-61
2023/01/13 08:50:50;;;;;;;6.33;1.70;;;8.70;99.90;;;;;;5031338;28;20250;-60
2023/01/13 08:53:17;;;;;;;10.60;1.93;;;8.70;99.90;;;;;;5030657;28;20207;-64
2023/01/13 08:55:44;;;;;;;8.83;1.50;;;8.70;99.90;;;;;;5025564;28;20306;-59
2023/01/13 08:58:11;;;;;;;10.63;2.17;;;8.70;99.90;;;;;;5031689;28;20193;-60
2023/01/13 09:00:42;;;;;;;13.77;1.80;;;8.70;99.90;;;;;;5030971;28;20199;-61
2023/01/13 09:03:09;;;;;;;9.90;1.90;;;8.70;99.90;;;;;;5025138;28;20211;-60
2023/01/13 09:05:36;;;;;;;9.93;2.30;;;8.80;99.90;;;;;;5025717;28;20206;-60
2023/01/13 09:08:03;;;;;;;16.53;2.63;;;8.80;99.90;;;;;;5026049;28;20225;-60
2023/01/13 09:10:30;;;;;;;19.13;2.97;;;8.80;99.90;;;;;;5030543;28;21104;-61
2023/01/13 09:13:12;;;;;;;13.17;2.23;;;8.80;99.90;;;;;;5027599;28;20246;-60
2023/01/13 09:15:42;;;;;;;8.87;1.87;;;8.80;99.90;;;;;;5035560;28;20366;-61
2023/01/13 09:18:10;;;;;;;9.60;1.60;;;8.70;99.90;;;;;;5025767;28;20337;-60
2023/01/13 09:20:37;;;;;;;12.63;2.30;;;8.70;99.90;;;;;;5020718;28;20209;-60
2023/01/13 09:23:04;;;;;;;11.43;2.80;;;8.70;99.90;;;;;;5026474;28;20207;-60
2023/01/13 09:25:35;;;;;;;13.10;1.87;;;8.70;99.90;;;;;;5030130;28;20262;-61
2023/01/13 09:28:03;;;;;;;9.33;2.40;;;8.70;99.90;;;;;;5030229;28;20205;-65
2023/01/13 09:30:30;;;;;;;7.13;2.00;;;8.70;99.90;;;;;;5034364;28;20214;-64
2023/01/13 09:35:48;;;;;;;9.83;1.93;;;8.70;99.90;;;;;;5053517;28;20329;-60
2023/01/13 09:38:15;;;;;;;17.10;2.40;;;8.80;99.90;;;;;;5032861;28;20201;-62
2023/01/13 09:40:42;;;;;;;12.43;3.23;;;8.80;99.90;;;;;;5026292;28;20205;-60
2023/01/13 09:46:43;;;;;;;10.63;2.47;;;8.80;99.90;;;;;;5028028;28;20328;-61
2023/01/13 09:49:21;;;;;;;12.93;2.37;;;8.70;99.90;;;;;;5031640;28;20277;-60
2023/01/13 09:52:23;;;;;;;13.57;2.80;;;8.70;99.90;;;;;;5035407;28;20563;-60
2023/01/13 09:55:14;;;;;;;11.70;1.83;;;8.80;99.90;;;;;;5024856;28;20318;-60
2023/01/13 09:57:41;;;;;;;10.50;2.30;;;8.90;99.90;;;;;;5028742;28;20299;-60
2023/01/13 10:00:21;;;;;;;12.83;2.40;;;8.80;99.90;;;;;;5026848;28;20616;-60
2023/01/13 10:03:11;;;;;;;9.70;2.70;;;8.70;99.90;;;;;;5028694;28;20236;-60
2023/01/13 10:05:58;;;;;;;11.90;1.93;;;8.50;99.90;;;;;;5028762;28;20208;-61
2023/01/13 10:08:34;;;;;;;12.40;2.60;;;8.40;99.90;;;;;;5032271;28;20206;-61
2023/01/13 10:13:58;;;;;;;8.97;2.13;;;8.30;99.90;;;;;;5055889;28;20283;-61
2023/01/13 10:16:44;;;;;;;11.37;1.93;;;8.10;99.90;;;;;;5030714;28;20305;-60
2023/01/13 10:19:17;;;;;;;10.13;3.23;;;8.10;99.90;;;;;;5030625;28;20201;-61
2023/01/13 10:22:03;;;;;;;15.47;2.70;;;8.10;99.90;;;;;;5031961;28;20201;-61
2023/01/13 10:24:49;;;;;;;10.13;1.77;;;8.10;99.90;;;;;;5024880;28;20230;-61
2023/01/13 10:27:26;;;;;;;12.93;2.47;;;8.00;99.90;;;;;;5030968;28;20217;-62
2023/01/13 10:29:52;;;;;;;10.53;2.17;;;8.00;99.90;;;;;;5021164;28;20194;-59
2023/01/13 10:32:19;;;;;;;12.47;1.97;;;8.00;99.90;;;;;;5024575;28;20211;-61
2023/01/13 10:34:50;;;;;;;15.90;2.53;;;8.00;99.90;;;;;;5018763;28;20224;-60
2023/01/13 10:37:21;;;;;;;8.93;1.97;;;8.10;99.90;;;;;;5031659;28;20220;-61
2023/01/13 10:39:50;;;;;;;13.13;2.27;;;8.00;99.90;;;;;;5026250;28;20292;-61
2023/01/13 10:42:21;;;;;;;8.33;2.10;;;8.00;99.90;;;;;;5029905;28;20660;-61
2023/01/13 10:44:52;;;;;;;8.97;2.80;;;8.00;99.90;;;;;;5032855;28;20208;-61
2023/01/13 10:47:20;;;;;;;9.83;2.40;;;8.00;99.90;;;;;;5029677;28;20294;-61
2023/01/13 10:50:11;;;;;;;9.23;1.77;;;8.10;99.90;;;;;;5031519;28;20208;-61
2023/01/13 10:52:53;;;;;;;15.00;2.57;;;8.00;99.90;;;;;;5030946;28;20217;-60
2023/01/13 10:55:35;;;;;;;14.10;2.13;;;8.00;99.90;;;;;;5028402;28;20684;-60
2023/01/13 10:58:19;;;;;;;8.83;2.40;;;8.10;99.90;;;;;;5032638;28;20236;-60
2023/01/13 11:00:48;;;;;;;10.33;1.90;;;8.10;99.90;;;;;;5025519;28;20196;-61
2023/01/13 11:03:14;;;;;;;15.93;2.57;;;8.20;99.90;;;;;;5033913;28;20257;-60
2023/01/13 11:05:48;;;;;;;13.03;2.10;;;8.10;99.90;;;;;;5030097;28;20210;-60
2023/01/13 11:08:27;;;;;;;12.50;2.17;;;8.10;99.90;;;;;;5025138;28;20291;-61
2023/01/13 11:10:58;;;;;;;8.03;2.07;;;8.20;99.90;;;;;;5030744;28;20703;-60
2023/01/13 11:14:31;;;;;;;13.03;2.67;;;8.20;99.90;;;;;;5031223;28;20260;-60
2023/01/13 11:16:24;;;;;;;14.57;2.43;;;8.30;99.90;;;;;;5029134;28;20312;-61
2023/01/13 11:19:01;;;;;;;15.00;2.47;;;8.40;99.90;;;;;;5030593;28;20204;-61
2023/01/13 11:21:34;;;;;;;11.10;2.23;;;8.40;99.90;;;;;;5027543;28;20203;-61
2023/01/13 11:24:29;;;;;;;16.93;2.70;;;8.50;99.90;;;;;;5021802;28;20236;-61
2023/01/13 11:27:02;;;;;;;12.47;1.93;;;8.60;99.90;;;;;;5027754;28;20192;-61
2023/01/13 11:29:53;;;;;;;12.50;2.23;;;8.60;99.90;;;;;;5015839;28;20240;-61
2023/01/13 11:32:22;;;;;;;8.93;1.80;;;8.60;99.90;;;;;;5027852;28;20310;-61
2023/01/13 11:34:55;;;;;;;13.00;3.17;;;8.60;99.90;;;;;;5025183;28;20714;-61
2023/01/13 11:37:30;;;;;;;12.77;2.53;;;8.70;99.90;;;;;;5027123;28;20205;-61
2023/01/13 11:40:06;;;;;;;22.10;2.83;;;8.60;99.90;;;;;;5023745;28;20675;-60
2023/01/13 11:42:48;;;;;;;11.47;2.30;;;8.60;99.90;;;;;;5026910;28;20624;-60
2023/01/13 11:45:23;;;;;;;11.57;2.37;;;8.60;99.90;;;;;;5019255;28;20196;-60
2023/01/13 11:47:56;;;;;;;10.17;2.13;;;8.70;99.90;;;;;;5032228;28;20205;-61
2023/01/13 11:50:57;;;;;;;15.00;2.17;;;8.70;99.90;;;;;;5034104;28;20296;-60
2023/01/13 11:53:47;;;;;;;13.00;2.10;;;8.70;99.90;;;;;;5033786;28;20642;-60
2023/01/13 11:56:51;;;;;;;10.57;2.10;;;8.70;99.90;;;;;;5025925;28;20216;-60
2023/01/13 11:59:40;;;;;;;14.60;3.43;;;8.70;99.90;;;;;;5021648;28;20211;-61
2023/01/13 12:02:23;;;;;;;5.97;2.03;;;8.80;99.90;;;;;;5031404;28;20203;-60
2023/01/13 12:04:53;;;;;;;7.17;1.83;;;8.80;99.90;;;;;;5027991;28;20485;-60
2023/01/13 12:07:32;;;;;;;13.97;2.80;;;8.80;99.90;;;;;;5028086;28;20200;-61
2023/01/13 12:10:28;;;;;;;9.77;2.40;;;8.80;99.90;;;;;;5024683;28;20295;-59
2023/01/13 12:13:00;;;;;;;14.30;2.23;;;8.80;99.90;;;;;;5026725;28;20703;-60
2023/01/13 12:15:34;;;;;;;13.50;2.47;;;8.80;99.90;;;;;;5028823;28;20221;-59
2023/01/13 12:18:19;;;;;;;17.53;2.63;;;8.90;99.90;;;;;;5029928;28;20214;-59
2023/01/13 12:21:14;;;;;;;9.23;2.80;;;8.90;99.90;;;;;;5028601;28;20605;-60
2023/01/13 12:24:04;;;;;;;12.67;2.20;;;8.90;99.90;;;;;;5031603;28;20520;-59
2023/01/13 12:26:36;;;;;;;12.97;3.87;;;9.10;99.90;;;;;;5031692;28;20215;-60
2023/01/13 12:29:17;;;;;;;12.47;2.37;;;9.10;99.90;;;;;;5028656;28;20226;-59
2023/01/13 12:31:47;;;;;;;11.93;2.40;;;9.20;99.90;;;;;;5027265;28;20332;-60
2023/01/13 12:34:34;;;;;;;8.30;1.67;;;9.20;99.90;;;;;;5030613;28;20292;-59
2023/01/13 12:37:15;;;;;;;10.70;2.20;;;9.20;99.90;;;;;;5009559;28;20219;-60
2023/01/13 12:39:51;;;;;;;7.47;2.00;;;9.20;99.90;;;;;;5027096;28;20216;-60
2023/01/13 12:45:18;;;;;;;12.77;2.80;;;9.30;99.90;;;;;;5026013;28;20294;-60
2023/01/13 12:47:45;;;;;;;10.23;1.70;;;9.30;99.90;;;;;;5030622;28;20657;-61
2023/01/13 12:50:21;;;;;;;8.80;2.00;;;9.40;99.90;;;;;;5030465;28;20304;-61
2023/01/13 12:52:50;;;;;;;10.80;1.90;;;9.40;99.90;;;;;;5035066;28;20210;-60
2023/01/13 12:55:22;;;;;;;10.53;4.00;;;9.40;99.90;;;;;;5033185;28;20295;-60
2023/01/13 12:58:06;;;;;;;11.37;2.37;;;9.40;99.90;;;;;;5034619;28;20639;-60
2023/01/13 13:01:10;;;;;;;7.43;2.23;;;9.50;99.90;;;;;;5031951;28;20292;-60
2023/01/13 13:03:37;;;;;;;6.70;1.77;;;9.50;99.90;;;;;;5027769;28;20555;-61
2023/01/13 13:06:07;;;;;;;7.83;1.90;;;9.60;99.90;;;;;;5020089;28;20301;-62
2023/01/13 13:08:42;;;;;;;12.97;2.43;;;9.60;99.90;;;;;;5028223;28;20223;-60
2023/01/13 13:14:12;;;;;;;10.33;2.03;;;9.60;99.90;;;;;;5034056;28;20251;-61
2023/01/13 13:16:50;;;;;;;12.70;1.77;;;9.50;99.90;;;;;;5033523;28;20233;-62
2023/01/13 13:19:17;;;;;;;12.57;2.67;;;9.60;99.90;;;;;;5026819;28;20256;-61
2023/01/13 13:22:12;;;;;;;12.30;3.27;;;9.50;99.90;;;;;;5026035;28;20254;-61
2023/01/13 13:24:47;;;;;;;12.03;2.50;;;9.40;99.90;;;;;;5036115;28;20242;-61
2023/01/13 13:27:18;;;;;;;11.47;2.27;;;9.40;99.90;;;;;;5016524;28;20209;-61
2023/01/13 13:30:21;;;;;;;10.80;2.13;;;9.50;99.90;;;;;;5023963;28;20232;-61
2023/01/13 13:33:16;;;;;;;10.23;1.50;;;9.50;99.90;;;;;;5027687;28;20205;-61
2023/01/13 13:35:55;;;;;;;8.10;1.53;;;9.40;99.90;;;;;;5023383;28;20217;-62
2023/01/13 13:47:21;;;;;;;7.03;1.40;;;9.40;99.90;;;;;;5034663;28;20295;-60
2023/01/13 13:49:54;;;;;;;12.80;2.03;;;9.50;99.90;;;;;;5028948;28;20220;-61
2023/01/13 13:52:26;;;;;;;8.20;2.03;;;9.50;99.90;;;;;;5025502;28;20716;-60
2023/01/13 13:54:59;;;;;;;6.70;1.93;;;9.50;99.90;;;;;;5020297;28;20239;-61
2023/01/13 13:57:42;;;;;;;8.43;1.50;;;9.50;99.90;;;;;;5024162;28;20219;-61
2023/01/13 14:00:15;;;;;;;5.57;1.87;;;9.50;99.90;;;;;;5033380;28;20200;-63
2023/01/13 14:02:49;;;;;;;9.13;1.90;;;9.50;99.90;;;;;;5029080;28;20193;-61
2023/01/13 14:05:21;;;;;;;6.87;2.03;;;9.60;99.90;;;;;;5037265;28;20193;-61
2023/01/13 14:07:51;;;;;;;12.53;4.03;;;9.60;99.90;;;;;;5030475;28;20259;-62
2023/01/13 14:10:23;;;;;;;7.60;1.83;;;9.60;99.90;;;;;;5029551;28;20326;-61
2023/01/13 14:12:51;;;;;;;10.30;2.40;;;9.60;99.90;;;;;;5026399;28;20232;-61
2023/01/13 14:15:26;;;;;;;9.63;2.17;;;9.50;99.90;;;;;;5028745;28;20304;-63
2023/01/13 14:17:53;;;;;;;8.50;2.00;;;9.60;99.90;;;;;;5024941;28;21222;-61